Time;durP1;ratioP1;P1;durP2;ratioP2;P2;SDS_P1;SDS_P2;PMS_P1;PMS_P2;Temp;Humidity;BMP_temperature;BMP_pressure;BME280_temperature;BME280_humidity;BME280_pressure;Samples;Min_cycle;Max_cycle;Signal;HPM_P1;HPM_P2
2022/07/25 00:00:44;;;;;;;28.88;19.52;;;;;;;;;;4992272;28;20066;-50
2022/07/25 00:03:10;;;;;;;28.40;19.38;;;;;;;;;;4990112;28;20033;-50
2022/07/25 00:05:36;;;;;;;28.58;18.17;;;;;;;;;;4988847;28;20554;-49
2022/07/25 00:08:02;;;;;;;27.00;18.17;;;;;;;;;;4989591;28;20561;-48
2022/07/25 00:10:28;;;;;;;22.95;18.30;;;;;;;;;;4974918;28;20027;-48
2022/07/25 00:12:54;;;;;;;25.38;17.77;;;28.70;57.50;;;;;;4972976;28;20047;-51
2022/07/25 00:15:20;;;;;;;20.13;15.70;;;30.10;57.10;;;;;;4974037;28;20077;-48
2022/07/25 00:17:45;;;;;;;21.07;16.30;;;29.60;56.50;;;;;;4973500;28;20030;-49
2022/07/25 00:20:11;;;;;;;24.27;15.93;;;29.60;56.50;;;;;;4986618;28;20492;-49
2022/07/25 00:22:38;;;;;;;23.92;15.50;;;29.50;56.20;;;;;;4972608;28;20050;-48
2022/07/25 00:25:04;;;;;;;19.53;15.57;;;29.60;56.40;;;;;;4983283;28;20022;-48
2022/07/25 00:27:30;;;;;;;19.50;14.88;;;29.60;56.20;;;;;;4992084;28;20033;-49
2022/07/25 00:29:56;;;;;;;21.67;15.43;;;29.60;56.00;;;;;;4978477;28;20031;-50
2022/07/25 00:32:21;;;;;;;16.33;13.70;;;29.60;56.10;;;;;;4972934;28;20078;-48
2022/07/25 00:34:47;;;;;;;15.83;14.30;;;29.40;56.10;;;;;;4981329;28;20147;-49
2022/07/25 00:37:13;;;;;;;21.03;14.07;;;29.40;56.00;;;;;;4971597;28;20034;-50
2022/07/25 00:39:38;;;;;;;20.00;14.30;;;29.40;56.10;;;;;;4973048;28;20074;-50
2022/07/25 00:42:04;;;;;;;16.50;14.33;;;29.40;55.80;;;;;;4976513;28;20039;-48
2022/07/25 00:44:31;;;;;;;28.97;15.03;;;29.40;56.00;;;;;;4982093;28;20022;-48
2022/07/25 00:46:58;;;;;;;24.63;14.65;;;29.50;56.00;;;;;;4996048;28;20562;-48
2022/07/25 00:49:24;;;;;;;18.20;14.50;;;29.50;55.90;;;;;;4986613;28;20061;-48
2022/07/25 00:51:51;;;;;;;24.27;14.45;;;29.40;55.80;;;;;;4982200;28;20395;-51
2022/07/25 00:54:18;;;;;;;19.45;14.43;;;29.40;55.90;;;;;;4977497;28;20037;-49
2022/07/25 00:56:44;;;;;;;21.70;14.98;;;;;;;;;;4993118;28;20534;-48
2022/07/25 00:59:10;;;;;;;18.85;14.57;;;;;;;;;;4994237;28;20035;-48
2022/07/25 01:01:37;;;;;;;20.33;14.73;;;;;;;;;;4978576;28;20039;-47
2022/07/25 01:04:03;;;;;;;20.52;14.95;;;;;;;;;;4986484;28;20122;-48
2022/07/25 01:06:29;;;;;;;19.27;15.02;;;;;;;;;;4977270;28;20029;-46
2022/07/25 01:08:56;;;;;;;22.33;14.85;;;;;;;;;;4982889;28;20395;-50
2022/07/25 01:11:22;;;;;;;22.42;14.25;;;;;;;;;;4984655;28;20039;-48
2022/07/25 01:13:48;;;;;;;19.67;13.93;;;;;;;;;;4976132;28;20490;-51
2022/07/25 01:16:14;;;;;;;21.35;14.85;;;;;;;;;;4979650;28;20085;-49
2022/07/25 01:18:40;;;;;;;18.75;13.95;;;;;;;;;;4981591;28;20046;-48
2022/07/25 01:21:06;;;;;;;16.40;13.88;;;;;;;;;;4975645;28;20114;-49
2022/07/25 01:23:33;;;;;;;16.67;13.77;;;;;;;;;;4984009;28;20085;-49
2022/07/25 01:25:59;;;;;;;18.25;14.68;;;;;;;;;;4978716;28;20374;-48
2022/07/25 01:28:25;;;;;;;19.67;13.38;;;;;;;;;;4991481;28;20076;-48
2022/07/25 01:30:51;;;;;;;16.60;13.98;;;;;;;;;;4993497;28;20030;-53
2022/07/25 01:33:17;;;;;;;15.90;13.43;;;;;;;;;;4981801;28;20042;-48
2022/07/25 01:35:44;;;;;;;16.17;12.75;;;;;;;;;;4989630;28;20105;-49
2022/07/25 01:38:10;;;;;;;13.70;12.32;;;;;;;;;;4994909;28;20042;-49
2022/07/25 01:40:36;;;;;;;23.48;13.70;;;;;;;;;;4993939;28;20151;-49
2022/07/25 01:43:02;;;;;;;18.05;11.95;;;;;;;;;;4986047;28;20476;-47
2022/07/25 01:45:29;;;;;;;16.05;13.13;;;;;;;;;;4978165;28;20081;-48
2022/07/25 01:47:55;;;;;;;14.80;12.73;;;;;;;;;;4985066;28;20026;-49
2022/07/25 01:50:21;;;;;;;23.67;12.50;;;;;;;;;;4990820;28;20029;-50
2022/07/25 01:52:47;;;;;;;18.75;12.40;;;;;;;;;;4975391;28;20492;-47
2022/07/25 01:55:13;;;;;;;23.13;13.25;;;;;;;;;;4984335;28;20030;-48
2022/07/25 01:57:39;;;;;;;13.52;12.13;;;;;;;;;;4989055;28;20090;-46
2022/07/25 02:00:07;;;;;;;16.77;13.60;;;;;;;;;;4976046;28;20110;-48
2022/07/25 02:02:33;;;;;;;15.90;12.35;;;;;;;;;;4983450;28;20111;-48
2022/07/25 02:04:59;;;;;;;21.20;13.23;;;;;;;;;;4991190;28;20026;-49
2022/07/25 02:07:25;;;;;;;18.27;12.60;;;;;;;;;;4994560;28;20117;-48
2022/07/25 02:09:51;;;;;;;17.65;12.32;;;;;;;;;;4991913;28;20062;-50
2022/07/25 02:12:17;;;;;;;20.63;13.60;;;;;;;;;;4975951;28;20065;-48
2022/07/25 02:14:43;;;;;;;13.93;11.75;;;;;;;;;;4988474;28;20073;-49
2022/07/25 02:17:09;;;;;;;14.90;10.55;;;;;;;;;;4987299;28;20491;-51
2022/07/25 02:19:35;;;;;;;16.10;12.38;;;;;;;;;;4974739;28;20451;-49
2022/07/25 02:22:01;;;;;;;22.75;11.98;;;;;;;;;;4974614;28;20422;-48
2022/07/25 02:24:28;;;;;;;20.27;11.75;;;;;;;;;;4978933;28;20034;-52
2022/07/25 02:26:54;;;;;;;21.33;11.43;;;;;;;;;;4984807;28;20040;-48
2022/07/25 02:29:20;;;;;;;18.48;11.70;;;;;;;;;;4992155;28;20030;-49
2022/07/25 02:31:46;;;;;;;14.18;10.82;;;;;;;;;;4989737;28;20511;-48
2022/07/25 02:34:12;;;;;;;18.45;11.07;;;;;;;;;;4993604;28;20034;-48
2022/07/25 02:36:38;;;;;;;16.42;10.50;;;;;;;;;;4986064;28;20427;-49
2022/07/25 02:39:04;;;;;;;14.23;10.23;;;;;;;;;;4976207;28;20107;-48
2022/07/25 02:41:30;;;;;;;14.50;11.35;;;;;;;;;;4991675;28;20030;-47
2022/07/25 02:43:56;;;;;;;12.80;10.00;;;;;;;;;;4991600;28;20026;-51
2022/07/25 02:46:22;;;;;;;14.27;10.20;;;;;;;;;;4977248;28;20034;-46
2022/07/25 02:48:48;;;;;;;13.48;10.05;;;;;;;;;;4991857;28;20026;-46
2022/07/25 02:51:14;;;;;;;18.10;11.13;;;;;;;;;;4985873;28;20033;-48
2022/07/25 02:53:40;;;;;;;15.48;10.77;;;;;;;;;;4983812;28;20399;-49
2022/07/25 02:56:07;;;;;;;13.52;10.75;;;;;;;;;;4977504;28;20035;-46
2022/07/25 02:58:33;;;;;;;13.13;11.77;;;;;;;;;;4973076;28;20385;-49
2022/07/25 03:00:59;;;;;;;14.90;11.13;;;;;;;;;;4981178;28;20034;-47
2022/07/25 03:03:25;;;;;;;13.90;10.38;;;;;;;;;;4979087;28;20458;-51
2022/07/25 03:05:51;;;;;;;13.65;11.15;;;;;;;;;;4984841;28;20039;-49
2022/07/25 03:08:17;;;;;;;16.98;11.18;;;;;;;;;;4999103;28;20022;-47
2022/07/25 03:10:43;;;;;;;26.35;11.52;;;;;;;;;;5012743;28;20104;-47
2022/07/25 03:13:09;;;;;;;19.30;12.27;;;;;;;;;;5004649;28;20097;-47
2022/07/25 03:15:35;;;;;;;19.27;13.68;;;;;;;;;;4996662;28;20435;-49
2022/07/25 03:18:01;;;;;;;11.95;10.82;;;;;;;;;;4993271;28;20114;-47
2022/07/25 03:20:27;;;;;;;20.05;12.70;;;;;;;;;;4992730;28;20137;-47
2022/07/25 03:22:53;;;;;;;18.80;12.90;;;;;;;;;;4992836;28;20101;-49
2022/07/25 03:25:19;;;;;;;19.42;13.27;;;;;;;;;;4992936;28;20466;-46
2022/07/25 03:27:45;;;;;;;19.65;14.20;;;;;;;;;;4990866;28;20022;-47
2022/07/25 03:30:11;;;;;;;16.45;13.50;;;;;;;;;;4990994;28;20088;-47
2022/07/25 03:32:37;;;;;;;16.08;13.35;;;;;;;;;;4990919;28;20395;-47
2022/07/25 03:35:04;;;;;;;20.17;15.40;;;;;;;;;;4991756;28;20034;-47
2022/07/25 03:37:30;;;;;;;18.88;15.10;;;;;;;;;;4992346;28;20451;-52
2022/07/25 03:39:56;;;;;;;26.83;15.70;;;;;;;;;;4991269;28;20122;-47
2022/07/25 03:42:23;;;;;;;21.05;16.67;;;;;;;;;;4992226;28;20022;-47
2022/07/25 03:44:49;;;;;;;18.75;15.10;;;;;;;;;;4995388;28;20037;-48
2022/07/25 03:47:15;;;;;;;24.45;16.48;;;;;;;;;;5002082;28;20026;-49
2022/07/25 03:49:41;;;;;;;19.13;15.98;;;;;;;;;;4973135;28;20112;-46
2022/07/25 03:52:07;;;;;;;20.45;14.73;;;;;;;;;;4973270;28;20506;-47
2022/07/25 03:54:33;;;;;;;21.77;16.95;;;;;;;;;;4973226;28;20037;-49
2022/07/25 03:56:59;;;;;;;17.38;15.25;;;;;;;;;;4973313;28;20019;-48
2022/07/25 03:59:25;;;;;;;18.58;16.00;;;;;;;;;;4973081;28;20035;-47
2022/07/25 04:01:52;;;;;;;18.85;16.85;;;;;;;;;;4979701;28;20027;-47
2022/07/25 04:04:18;;;;;;;19.90;16.90;;;;;;;;;;4976783;28;20515;-48
2022/07/25 04:06:44;;;;;;;18.25;16.35;;;;;;;;;;4971840;28;20389;-47
2022/07/25 04:09:11;;;;;;;19.92;17.08;;;;;;;;;;4972897;28;20125;-47
2022/07/25 04:11:37;;;;;;;;;;;;;;;;;;4973351;28;20029;-47
2022/07/25 04:14:03;;;;;;;23.75;17.20;;;;;;;;;;4972290;28;20008;-51
2022/07/25 04:16:30;;;;;;;18.90;16.90;;;;;;;;;;4973050;28;20030;-46
2022/07/25 04:18:56;;;;;;;20.45;17.52;;;;;;;;;;4972761;28;20026;-47
2022/07/25 04:21:22;;;;;;;25.67;19.30;;;;;;;;;;4972753;28;20101;-47
2022/07/25 04:23:48;;;;;;;25.83;18.90;;;;;;;;;;4972785;28;20027;-47
2022/07/25 04:26:15;;;;;;;25.30;17.92;;;;;;;;;;4972863;28;20019;-46
2022/07/25 04:28:41;;;;;;;24.63;19.88;;;;;;;;;;4972767;28;20019;-47
2022/07/25 04:31:07;;;;;;;25.52;20.20;;;;;;;;;;4972799;28;20118;-48
2022/07/25 04:33:36;;;;;;;23.17;20.00;;;;;;;;;;4972741;28;20169;-46
2022/07/25 04:36:02;;;;;;;21.45;19.02;;;;;;;;;;4972766;28;20038;-47
2022/07/25 04:38:28;;;;;;;28.33;19.65;;;;;;;;;;4972601;28;20023;-46
2022/07/25 04:40:54;;;;;;;25.10;19.73;;;;;;;;;;4972623;28;20039;-49
2022/07/25 04:43:20;;;;;;;23.65;19.60;;;;;;;;;;4972772;28;20026;-47
2022/07/25 04:45:46;;;;;;;21.95;17.70;;;;;;;;;;4972697;28;20019;-49
2022/07/25 04:48:12;;;;;;;21.40;17.13;;;;;;;;;;4972782;28;20015;-48
2022/07/25 04:50:39;;;;;;;22.77;17.08;;;;;;;;;;4972466;28;20066;-46
2022/07/25 04:53:05;;;;;;;21.33;16.02;;;;;;;;;;4972698;28;20419;-47
2022/07/25 04:55:31;;;;;;;23.85;16.73;;;;;;;;;;4977121;28;20067;-48
2022/07/25 04:57:58;;;;;;;34.17;15.45;;;;;;;;;;5011892;28;20014;-48
2022/07/25 05:00:24;;;;;;;23.25;15.95;;;;;;;;;;5011436;28;20470;-47
2022/07/25 05:02:50;;;;;;;23.92;16.95;;;;;;;;;;5011768;28;20447;-48
2022/07/25 05:05:17;;;;;;;23.63;16.88;;;;;;;;;;5010372;28;20450;-51
2022/07/25 05:07:43;;;;;;;21.58;15.93;;;;;;;;;;5011553;28;20545;-49
2022/07/25 05:10:09;;;;;;;20.27;15.82;;;;;;;;;;5011494;28;20036;-49
2022/07/25 05:12:35;;;;;;;18.52;15.57;;;;;;;;;;5010334;28;20030;-46
2022/07/25 05:15:02;;;;;;;18.60;15.18;;;;;;;;;;5011547;28;20072;-48
2022/07/25 05:17:28;;;;;;;18.60;14.32;;;;;;;;;;5011440;28;20022;-49
2022/07/25 05:19:54;;;;;;;18.23;13.93;;;;;;;;;;5011550;28;20030;-46
2022/07/25 05:22:20;;;;;;;20.45;14.75;;;;;;;;;;5011598;28;20052;-47
2022/07/25 05:24:46;;;;;;;24.17;15.93;;;;;;;;;;5011524;28;20026;-47
2022/07/25 05:27:12;;;;;;;18.00;14.57;;;;;;;;;;5015087;28;20437;-47
2022/07/25 05:29:38;;;;;;;71.88;18.92;;;;;;;;;;5014800;28;20493;-47
2022/07/25 05:32:04;;;;;;;23.95;15.55;;;;;;;;;;5014767;28;20022;-46
2022/07/25 05:34:30;;;;;;;18.27;13.73;;;;;;;;;;5014918;28;20033;-46
2022/07/25 05:36:56;;;;;;;19.75;14.48;;;;;;;;;;5014906;28;20122;-46
2022/07/25 05:39:22;;;;;;;20.77;13.75;;;;;;;;;;5014642;28;20061;-47
2022/07/25 05:41:48;;;;;;;17.30;14.20;;;;;;;;;;5014592;28;20021;-47
2022/07/25 05:44:14;;;;;;;27.83;16.02;;;;;;;;;;5005501;28;20041;-45
2022/07/25 05:46:40;;;;;;;19.95;16.85;;;;;;;;;;4995007;28;20472;-46
2022/07/25 05:49:06;;;;;;;20.20;15.98;;;;;;;;;;4994856;28;20029;-45
2022/07/25 05:51:32;;;;;;;16.67;14.55;;;;;;;;;;4994854;28;20102;-46
2022/07/25 05:53:58;;;;;;;18.92;16.23;;;;;;;;;;4994980;28;20492;-45
2022/07/25 05:56:24;;;;;;;17.80;14.57;;;;;;;;;;4994957;28;20054;-45
2022/07/25 05:58:51;;;;;;;19.23;13.70;;;;;;;;;;4994723;28;20113;-44
2022/07/25 06:01:17;;;;;;;21.67;14.85;;;;;;;;;;4994602;28;20438;-45
2022/07/25 06:03:43;;;;;;;20.40;15.98;;;;;;;;;;4994824;28;20023;-46
2022/07/25 06:06:09;;;;;;;22.13;16.02;;;;;;;;;;4994764;28;20030;-46
2022/07/25 06:08:36;;;;;;;22.52;15.85;;;;;;;;;;4993396;28;20426;-45
2022/07/25 06:11:05;;;;;;;22.00;15.77;;;;;;;;;;4994172;28;20506;-45
2022/07/25 06:13:31;;;;;;;20.23;14.65;;;;;;;;;;5002947;28;20022;-45
2022/07/25 06:15:57;;;;;;;25.33;16.65;;;;;;;;;;5004261;28;20033;-45
2022/07/25 06:18:23;;;;;;;19.00;16.10;;;;;;;;;;5000690;28;20081;-44
2022/07/25 06:20:49;;;;;;;17.63;15.68;;;;;;;;;;5002660;28;20037;-46
2022/07/25 06:23:16;;;;;;;23.92;16.85;;;;;;;;;;5002261;28;20026;-45
2022/07/25 06:25:42;;;;;;;22.75;17.02;;;;;;;;;;5009120;28;20034;-45
2022/07/25 06:28:08;;;;;;;19.05;15.65;;;;;;;;;;4998534;28;20030;-45
2022/07/25 06:30:35;;;;;;;27.88;16.70;;;;;;;;;;4982746;28;20033;-44
2022/07/25 06:33:01;;;;;;;25.67;15.70;;;;;;;;;;4983032;28;20037;-46
2022/07/25 06:35:27;;;;;;;24.45;16.08;;;;;;;;;;4985496;28;20023;-45
2022/07/25 06:37:53;;;;;;;17.50;15.52;;;;;;;;;;4985390;28;20506;-45
2022/07/25 06:40:19;;;;;;;20.73;14.50;;;;;;;;;;4982139;28;20065;-46
2022/07/25 06:42:46;;;;;;;22.00;14.93;;;;;;;;;;4984629;28;20037;-45
2022/07/25 06:45:13;;;;;;;25.58;15.27;;;;;;;;;;4986360;28;20086;-45
2022/07/25 06:47:39;;;;;;;;;;;;;;;;;;5013832;28;20390;-46
2022/07/25 06:50:06;;;;;;;17.45;14.60;;;;;;;;;;5013305;28;19905;-45
2022/07/25 06:52:32;;;;;;;20.13;13.82;;;;;;;;;;5013354;28;20112;-45
2022/07/25 06:54:58;;;;;;;22.80;13.52;;;;;;;;;;5012933;28;20057;-45
2022/07/25 06:57:24;;;;;;;23.63;13.98;;;;;;;;;;5012533;28;20085;-45
2022/07/25 06:59:50;;;;;;;15.07;12.13;;;;;;;;;;5004196;28;20561;-44
2022/07/25 07:02:16;;;;;;;19.45;12.13;;;;;;;;;;4996348;28;20029;-45
2022/07/25 07:04:42;;;;;;;17.55;11.88;;;;;;;;;;5007562;28;20079;-45
2022/07/25 07:07:09;;;;;;;16.58;10.75;;;;;;;;;;5013260;28;20026;-45
2022/07/25 07:09:35;;;;;;;14.77;10.50;;;;;;;;;;5004504;28;20054;-45
2022/07/25 07:12:01;;;;;;;15.55;11.57;;;;;;;;;;4992946;28;20022;-46
2022/07/25 07:14:27;;;;;;;15.55;11.75;;;;;;;;;;4993269;28;20483;-47
2022/07/25 07:16:53;;;;;;;17.25;12.60;;;;;;;;;;4993508;28;20558;-55
2022/07/25 07:19:19;;;;;;;15.50;11.48;;;;;;;;;;4993223;28;20057;-52
2022/07/25 07:21:45;;;;;;;13.38;9.82;;;;;;;;;;4991880;28;20069;-56
2022/07/25 07:24:11;;;;;;;25.08;9.57;;;;;;;;;;4993241;28;20026;-51
2022/07/25 07:26:37;;;;;;;13.52;8.32;;;;;;;;;;4993303;28;20405;-52
2022/07/25 07:29:03;;;;;;;23.38;7.70;;;;;;;;;;4992946;28;20392;-55
2022/07/25 07:31:29;;;;;;;20.38;8.82;;;;;;;;;;5000124;28;20100;-53
2022/07/25 07:33:57;;;;;;;29.52;9.40;;;;;;;;;;5012484;28;20029;-51
2022/07/25 07:36:23;;;;;;;10.63;7.68;;;;;;;;;;5012456;28;20438;-52
2022/07/25 07:38:51;;;;;;;13.10;8.07;;;;;;;;;;5012340;28;20269;-51
2022/07/25 07:41:18;;;;;;;14.25;7.63;;;;;;;;;;5012425;28;20052;-52
2022/07/25 07:43:44;;;;;;;10.93;7.88;;;;;;;;;;5012392;28;20127;-54
2022/07/25 07:46:10;;;;;;;18.33;7.18;;;;;;;;;;5012422;28;20398;-55
2022/07/25 07:48:36;;;;;;;13.98;8.55;;;;;;;;;;5012084;28;20032;-54
2022/07/25 07:51:02;;;;;;;10.18;7.70;;;;;;;;;;5012262;28;20033;-54
2022/07/25 07:56:14;;;;;;;20.00;8.90;;;;;;;;;;5012311;28;20406;-53
2022/07/25 07:58:40;;;;;;;13.23;8.65;;;;;;;;;;5012019;28;20069;-52
2022/07/25 08:01:06;;;;;;;15.20;8.57;;;;;;;;;;5012019;28;20022;-52
2022/07/25 08:03:33;;;;;;;12.23;8.00;;;;;;;;;;5012200;28;20072;-55
2022/07/25 08:05:59;;;;;;;13.55;7.72;;;;;;;;;;5012126;28;20018;-53
2022/07/25 08:08:25;;;;;;;11.93;7.53;;;;;;;;;;5010714;28;20072;-52
2022/07/25 08:10:51;;;;;;;18.50;9.32;;;;;;;;;;5010662;28;20025;-51
2022/07/25 08:13:22;;;;;;;19.42;9.00;;;;;;;;;;5012075;28;20125;-51
2022/07/25 08:15:49;;;;;;;12.93;8.02;;;;;;;;;;5012083;28;20018;-53
2022/07/25 08:18:16;;;;;;;13.02;7.13;;;;;;;;;;5011975;28;20030;-53
2022/07/25 08:20:42;;;;;;;8.70;6.45;;;;;;;;;;5011557;28;20498;-53
2022/07/25 08:23:09;;;;;;;13.32;7.47;;;;;;;;;;5011985;28;20409;-53
2022/07/25 08:25:36;;;;;;;10.00;6.45;;;;;;;;;;5011827;28;20101;-51
2022/07/25 08:28:02;;;;;;;14.60;6.72;;;;;;;;;;5011831;28;20104;-54
2022/07/25 08:30:28;;;;;;;10.70;6.13;;;;;;;;;;5011625;28;20025;-53
2022/07/25 08:32:58;;;;;;;21.65;6.22;;;;;;;;;;5011829;28;20026;-51
2022/07/25 08:35:25;;;;;;;12.40;5.97;;;;;;;;;;5011837;28;20117;-53
2022/07/25 08:37:51;;;;;;;10.20;6.25;;;;;;;;;;5011799;28;20103;-56
2022/07/25 08:40:18;;;;;;;6.38;5.43;;;;;;;;;;5011484;28;20030;-52
2022/07/25 08:42:44;;;;;;;20.33;6.30;;;;;;;;;;5011698;28;20117;-53
2022/07/25 08:45:12;;;;;;;9.18;5.80;;;;;;;;;;5011801;28;20025;-52
2022/07/25 08:47:39;;;;;;;10.90;6.05;;;;;;;;;;5011608;28;20053;-52
2022/07/25 08:50:07;;;;;;;12.43;5.85;;;;;;;;;;5011786;28;20022;-52
2022/07/25 08:52:36;;;;;;;9.75;5.57;;;;;;;;;;5011617;28;20113;-52
2022/07/25 08:55:03;;;;;;;10.20;5.18;;;;;;;;;;5011652;28;20526;-55
2022/07/25 08:57:30;;;;;;;7.13;5.60;;;;;;;;;;5011581;28;20487;-54
2022/07/25 08:59:57;;;;;;;19.17;7.65;;;;;;;;;;5010439;28;20553;-52
2022/07/25 09:02:23;;;;;;;10.05;5.57;;;;;;;;;;5015316;28;20034;-54
2022/07/25 09:04:49;;;;;;;9.60;5.28;;;;;;;;;;5015428;28;20049;-54
2022/07/25 09:07:15;;;;;;;10.60;4.97;;;;;;;;;;5014148;28;20568;-53
2022/07/25 09:09:43;;;;;;;9.35;5.88;;;;;;;;;;5015094;28;20030;-55
2022/07/25 09:12:09;;;;;;;13.43;5.55;;;;;;;;;;5015202;28;20072;-52
2022/07/25 09:14:42;;;;;;;9.32;5.30;;;;;;;;;;5015174;28;20034;-52
2022/07/25 09:17:08;;;;;;;17.02;5.50;;;;;;;;;;5015618;28;20114;-51
2022/07/25 09:19:34;;;;;;;7.85;5.32;;;;;;;;;;5015173;28;20061;-54
2022/07/25 09:22:05;;;;;;;8.32;5.53;;;;;;;;;;5014800;28;20486;-52
2022/07/25 09:24:31;;;;;;;12.65;5.80;;;;;;;;;;5015058;28;20026;-55
2022/07/25 09:26:59;;;;;;;12.00;5.88;;;;;;;;;;5015410;28;20149;-51
2022/07/25 09:29:30;;;;;;;13.63;5.97;;;;;;;;;;5014822;28;20026;-55
2022/07/25 09:31:57;;;;;;;14.75;5.78;;;;;;;;;;5014812;28;20022;-52
2022/07/25 09:34:30;;;;;;;9.27;5.82;;;;;;;;;;5014818;28;20037;-55
2022/07/25 09:36:57;;;;;;;8.13;5.53;;;;;;;;;;5014852;28;20033;-52
2022/07/25 09:39:52;;;;;;;9.82;5.65;;;;;;;;;;5014751;28;20026;-51
2022/07/25 09:42:18;;;;;;;7.18;5.28;;;;;;;;;;4993435;28;20037;-56
2022/07/25 09:44:56;;;;;;;6.05;4.65;;;;;;;;;;5014835;28;20168;-55
2022/07/25 09:47:22;;;;;;;9.20;4.60;;;;;;;;;;5014744;28;20029;-54
2022/07/25 09:49:48;;;;;;;7.43;4.80;;;;;;;;;;5014492;28;20030;-56
2022/07/25 09:52:16;;;;;;;14.88;5.43;;;;;;;;;;5014360;28;20141;-59
2022/07/25 09:54:42;;;;;;;12.15;5.07;;;;;;;;;;5014544;28;20030;-56
2022/07/25 09:57:09;;;;;;;7.53;5.53;;;;;;;;;;5014445;28;20084;-58
2022/07/25 09:59:35;;;;;;;8.77;4.85;;;;;;;;;;5014336;28;20076;-53
2022/07/25 10:02:09;;;;;;;10.55;4.70;;;;;;;;;;5014330;28;20499;-55
2022/07/25 10:04:56;;;;;;;9.50;4.93;;;;;;;;;;5014437;28;20394;-52
2022/07/25 10:07:23;;;;;;;9.05;4.53;;;;;;;;;;5014592;28;20029;-56
2022/07/25 10:09:51;;;;;;;8.30;5.25;;;;;;;;;;5014033;28;20494;-56
2022/07/25 10:12:21;;;;;;;5.35;4.53;;;;;;;;;;5012795;28;20451;-58
2022/07/25 10:15:06;;;;;;;22.95;5.43;;;;;;;;;;5013110;28;20034;-58
2022/07/25 10:17:32;;;;;;;10.38;4.97;;;;;;;;;;5014385;28;20026;-56
2022/07/25 10:20:00;;;;;;;11.98;5.47;;;;;;;;;;5011817;28;20036;-56
2022/07/25 10:22:39;;;;;;;6.72;5.38;;;;;;;;;;4974956;28;20126;-57
2022/07/25 10:25:12;;;;;;;10.55;4.88;;;;;;;;;;4974997;28;20030;-61
2022/07/25 10:27:42;;;;;;;6.68;4.07;;;;;;;;;;4987325;28;20026;-51
2022/07/25 10:30:10;;;;;;;12.95;8.10;;;;;;;;;;4998794;28;20037;-57
2022/07/25 10:32:36;;;;;;;9.02;5.05;;;;;;;;;;5001621;28;20379;-57
2022/07/25 10:35:11;;;;;;;9.23;5.30;;;;;;;;;;4996561;28;20474;-55
2022/07/25 10:37:37;;;;;;;9.13;4.65;;;;;;;;;;4983146;28;20030;-53
2022/07/25 10:40:04;;;;;;;11.15;4.25;;;;;;;;;;4974427;28;20034;-56
2022/07/25 10:42:32;;;;;;;10.60;5.20;;;;;;;;;;4986172;28;20080;-51
2022/07/25 10:45:04;;;;;;;16.00;5.35;;;;;;;;;;4992794;28;20052;-52
2022/07/25 10:47:37;;;;;;;8.95;4.28;;;;;;;;;;4986258;28;20488;-51
2022/07/25 10:50:03;;;;;;;8.00;4.53;;;;;;;;;;5000513;28;20037;-52
2022/07/25 10:52:29;;;;;;;;;;;;;;;;;;5004158;28;20625;-56
2022/07/25 10:54:55;;;;;;;8.77;4.25;;;;;;;;;;4993613;28;20283;-56
2022/07/25 10:57:22;;;;;;;7.57;4.03;;;;;;;;;;4993040;28;20041;-55
2022/07/25 10:59:48;;;;;;;8.88;4.43;;;;;;;;;;4992913;28;20395;-56
2022/07/25 11:02:17;;;;;;;7.30;3.83;;;;;;;;;;4993089;28;20054;-53
2022/07/25 11:04:44;;;;;;;6.40;3.78;;;;;;;;;;4993477;28;20018;-54
2022/07/25 11:07:14;;;;;;;7.55;4.10;;;;;;;;;;4993486;28;20034;-55
2022/07/25 11:09:41;;;;;;;8.38;3.90;;;;;;;;;;4993362;28;20488;-56
2022/07/25 11:12:07;;;;;;;5.45;4.07;;;;;;;;;;4993332;28;20058;-56
2022/07/25 11:14:33;;;;;;;;;;;;;;;;;;4994077;28;20361;-56
2022/07/25 11:17:11;;;;;;;6.97;3.78;;;;;;;;;;4993448;28;19906;-55
2022/07/25 11:19:38;;;;;;;10.40;4.47;;;;;;;;;;4993033;28;20109;-55
2022/07/25 11:22:04;;;;;;;8.57;3.80;;;;;;;;;;4993617;28;20173;-56
2022/07/25 11:24:41;;;;;;;7.10;4.45;;;;;;;;;;4992831;28;20502;-54
2022/07/25 11:27:08;;;;;;;10.30;4.00;;;;;;;;;;4993190;28;20065;-54
2022/07/25 11:29:37;;;;;;;10.10;4.32;;;;;;;;;;4992941;28;20031;-57
2022/07/25 11:32:05;;;;;;;6.18;3.92;;;;;;;;;;4992980;28;20118;-56
2022/07/25 11:34:32;;;;;;;9.15;4.53;;;;;;;;;;4993371;28;20510;-54
2022/07/25 11:36:59;;;;;;;6.28;4.07;;;;;;;;;;4992901;28;20085;-56
2022/07/25 11:39:26;;;;;;;9.93;5.22;;;;;;;;;;4992679;28;20030;-55
2022/07/25 11:42:06;;;;;;;11.20;5.15;;;;;;;;;;4992728;28;20081;-55
2022/07/25 11:44:39;;;;;;;8.40;3.97;;;;;;;;;;4992957;28;20050;-56
2022/07/25 11:47:06;;;;;;;10.43;4.20;;;;;;;;;;4992900;28;20026;-57
2022/07/25 11:49:46;;;;;;;4.97;4.10;;;;;;;;;;4992522;28;20507;-56
2022/07/25 11:52:29;;;;;;;5.03;3.78;;;;;;;;;;4991396;28;20439;-52
2022/07/25 11:54:59;;;;;;;9.77;3.70;;;;;;;;;;4992662;28;20162;-55
2022/07/25 11:57:30;;;;;;;6.93;3.80;;;;;;;;;;4992974;28;20483;-56
2022/07/25 11:59:59;;;;;;;6.30;4.43;;;;;;;;;;4992432;28;20041;-57
2022/07/25 12:02:27;;;;;;;9.80;4.68;;;;;;;;;;4992461;28;20124;-55
2022/07/25 12:04:54;;;;;;;13.15;4.10;;;;;;;;;;4992645;28;20089;-54
2022/07/25 12:07:20;;;;;;;8.73;4.35;;;;;;;;;;4991226;28;20110;-55
2022/07/25 12:09:46;;;;;;;;;;;;;;;;;;4992808;28;20031;-55
2022/07/25 12:12:13;;;;;;;9.90;3.53;;;;;;;;;;4991244;28;19940;-55
2022/07/25 12:14:42;;;;;;;8.10;4.30;;;;;;;;;;4992415;28;20077;-55
2022/07/25 12:17:09;;;;;;;6.93;4.28;;;;;;;;;;4992386;28;20026;-52
2022/07/25 12:19:35;;;;;;;;;;;;;;;;;;4992686;28;20454;-54
2022/07/25 12:22:01;;;;;;;9.02;4.63;;;;;;;;;;4991961;28;20398;-53
2022/07/25 12:24:27;;;;;;;;;;;;;;;;;;4993029;28;20037;-55
2022/07/25 12:26:54;;;;;;;8.50;4.60;;;;;;;;;;4992370;28;19910;-54
2022/07/25 12:29:20;;;;;;;6.38;4.03;;;;;;;;;;4992361;28;20029;-54
2022/07/25 12:31:46;;;;;;;;;;;;;;;;;;4992576;28;20035;-54
2022/07/25 12:34:12;;;;;;;8.20;4.82;;;;;;;;;;4992270;28;19906;-54
2022/07/25 12:36:43;;;;;;;11.20;4.20;;;;;;;;;;4995379;28;20030;-54
2022/07/25 12:39:09;;;;;;;7.25;4.72;;;;;;;;;;4996273;28;20030;-55
2022/07/25 12:41:35;;;;;;;;;;;;;;;;;;4997027;28;20031;-55
2022/07/25 12:44:03;;;;;;;7.20;4.50;;;;;;;;;;4996632;28;20346;-55
2022/07/25 12:46:29;;;;;;;8.68;5.03;;;;;;;;;;4996163;28;20097;-54
2022/07/25 12:48:55;;;;;;;;;;;;;;;;;;4996352;28;20022;-55
2022/07/25 12:51:21;;;;;;;10.68;4.15;;;;;;;;;;4995875;28;20331;-52
2022/07/25 12:53:47;;;;;;;9.48;4.50;;;;;;;;;;4996028;28;20030;-55
2022/07/25 12:56:13;;;;;;;;;;;;;;;;;;4996502;28;20100;-52
2022/07/25 12:58:39;;;;;;;5.97;4.80;;;;;;;;;;4995811;28;20395;-56
2022/07/25 13:01:06;;;;;;;;;;;;;;;;;;4996106;28;20114;-52
2022/07/25 13:03:32;;;;;;;6.93;5.97;;;;;;;;;;4995919;28;20290;-54
2022/07/25 13:05:59;;;;;;;11.45;5.28;;;;;;;;;;4995714;28;20494;-56
2022/07/25 13:08:25;;;;;;;6.05;5.15;;;;;;;;;;4995692;28;20030;-52
2022/07/25 13:10:51;;;;;;;6.15;4.93;;;;;;;;;;4995647;28;20034;-54
2022/07/25 13:13:17;;;;;;;6.72;5.07;;;;;;;;;;4995619;28;20026;-55
2022/07/25 13:15:44;;;;;;;6.63;4.72;;;;;;;;;;4994297;28;20030;-56
2022/07/25 13:18:10;;;;;;;8.02;5.40;;;;;;;;;;4995584;28;20038;-55
2022/07/25 13:20:36;;;;;;;7.97;5.03;;;;;;;;;;4995046;28;20493;-55
2022/07/25 13:23:03;;;;;;;10.68;5.28;;;;;;;;;;4995469;28;20035;-52
2022/07/25 13:25:30;;;;;;;5.75;4.45;;;;;;;;;;4995634;28;20023;-55
2022/07/25 13:27:56;;;;;;;8.75;5.15;;;;;;;;;;4995504;28;20499;-55
2022/07/25 13:30:22;;;;;;;9.32;5.43;;;;;;;;;;4995126;28;20333;-54
2022/07/25 13:32:48;;;;;;;10.90;5.68;;;;;;;;;;4995268;28;20495;-55
2022/07/25 13:35:14;;;;;;;6.10;4.32;;;;;;;;;;4995262;28;20034;-55
2022/07/25 13:37:41;;;;;;;9.10;4.80;;;;;;;;;;4995237;28;20030;-57
2022/07/25 13:40:07;;;;;;;9.88;5.18;;;;;;;;;;4995068;28;20030;-54
2022/07/25 13:42:34;;;;;;;7.95;4.70;;;;;;;;;;4994941;28;20030;-56
2022/07/25 13:45:00;;;;;;;8.80;4.78;;;;;;;;;;4995097;28;20030;-56
2022/07/25 13:47:26;;;;;;;7.05;4.82;;;;;;;;;;4994714;28;20383;-56
2022/07/25 13:49:53;;;;;;;7.38;4.70;;;;;;;;;;4994882;28;20475;-56
2022/07/25 13:52:19;;;;;;;6.50;4.38;;;;;;;;;;4994940;28;20053;-54
2022/07/25 13:54:45;;;;;;;5.85;4.72;;;;;;;;;;4994957;28;20145;-57
2022/07/25 13:57:11;;;;;;;18.33;9.60;;;;;;;;;;4994785;28;20030;-56
2022/07/25 13:59:37;;;;;;;8.85;4.55;;;29.30;56.00;;;;;;4994683;28;20045;-57
2022/07/25 14:02:04;;;;;;;8.63;4.57;;;;;;;;;;4993377;28;20027;-56
2022/07/25 14:04:30;;;;;;;11.57;6.13;;;;;;;;;;4994785;28;20026;-56
2022/07/25 14:06:56;;;;;;;6.05;4.70;;;;;;;;;;4993430;28;20085;-56
2022/07/25 14:09:22;;;;;;;7.13;5.13;;;;;;;;;;4994515;28;20102;-56
2022/07/25 14:11:48;;;;;;;28.38;5.75;;;;;;;;;;4994397;28;20053;-57
2022/07/25 14:14:15;;;;;;;6.63;5.10;;;;;;;;;;4994602;28;20049;-57
2022/07/25 14:16:41;;;;;;;9.52;4.95;;;;;;;;;;4994981;28;20022;-52
2022/07/25 14:19:08;;;;;;;10.35;4.65;;;;;;;;;;4993069;28;20034;-55
2022/07/25 14:21:34;;;;;;;7.10;5.13;;;;;;;;;;4994168;28;20030;-56
2022/07/25 14:24:00;;;;;;;13.80;5.63;;;;;;;;;;4994466;28;20399;-58